Time;durP1;ratioP1;P1;durP2;ratioP2;P2;SDS_P1;SDS_P2;PMS_P1;PMS_P2;Temp;Humidity;BMP_temperature;BMP_pressure;BME280_temperature;BME280_humidity;BME280_pressure;Samples;Min_cycle;Max_cycle;Signal;HPM_P1;HPM_P2
2022/04/25 00:01:42;;;;;;;;;;;8.60;99.90;;;7.96;100.00;96199.94;5012366;28;20344;-49
2022/04/25 00:04:07;;;;;;;;;;;8.60;99.90;;;7.87;100.00;96195.13;5008027;28;20038;-51
2022/04/25 00:06:34;;;;;;;;;;;8.60;99.90;;;7.96;100.00;96204.34;5003506;28;19933;-51
2022/04/25 00:08:59;;;;;;;;;;;8.60;99.90;;;7.95;100.00;96205.25;5006811;28;19931;-52
2022/04/25 00:11:25;;;;;;;;;;;8.60;99.90;;;7.95;100.00;96211.38;5006432;28;19926;-52
2022/04/25 00:13:51;;;;;;;;;;;8.60;99.90;;;7.94;100.00;96209.66;5007850;28;19925;-50
2022/04/25 00:16:18;;;;;;;;;;;8.60;99.90;;;7.92;100.00;96211.53;5014960;28;20405;-51
2022/04/25 00:18:44;;;;;;;;;;;8.50;99.90;;;7.89;100.00;96206.41;5010529;28;19979;-51
2022/04/25 00:21:10;;;;;;;;;;;8.60;99.90;;;7.90;100.00;96213.38;5004626;28;19928;-49
2022/04/25 00:23:35;;;;;;;;;;;8.50;99.90;;;7.82;100.00;96192.72;5005294;28;19926;-48
2022/04/25 00:26:01;;;;;;;;;;;8.50;99.90;;;7.91;100.00;96208.97;5003750;28;20012;-50
2022/04/25 00:28:27;;;;;;;;;;;8.60;99.90;;;7.78;100.00;96185.88;5011954;28;20377;-49
2022/04/25 00:30:53;;;;;;;;;;;8.50;99.90;;;7.91;100.00;96212.44;5008019;28;19947;-51
2022/04/25 00:33:18;;;;;;;;;;;8.50;99.90;;;7.90;100.00;96217.78;4994785;28;20097;-50
2022/04/25 00:35:44;;;;;;;;;;;8.50;99.90;;;7.77;100.00;96191.19;5009370;28;20348;-48
2022/04/25 00:38:09;;;;;;;;;;;8.50;99.90;;;7.94;100.00;96216.72;5008800;28;20029;-52
2022/04/25 00:40:35;;;;;;;;;;;8.60;99.90;;;7.89;100.00;96209.03;5006274;28;19933;-49
2022/04/25 00:43:01;;;;;;;;;;;8.50;99.90;;;7.84;100.00;96209.25;5007063;28;19933;-52
2022/04/25 00:45:26;;;;;;;;;;;8.50;99.90;;;7.82;100.00;96211.09;5005598;28;20030;-51
2022/04/25 00:47:52;;;;;;;;;;;8.50;99.90;;;7.73;100.00;96213.25;4994179;28;19994;-49
2022/04/25 00:50:18;;;;;;;;;;;8.40;99.90;;;7.64;100.00;96217.16;5003419;28;19920;-52
2022/04/25 00:52:43;;;;;;;;;;;8.30;99.90;;;7.59;100.00;96208.63;5011872;28;19925;-50
2022/04/25 00:55:10;;;;;;;;;;;8.30;99.90;;;7.57;100.00;96210.47;5007977;28;19928;-51
2022/04/25 00:57:37;;;;;;;;;;;8.30;99.90;;;7.49;100.00;96212.59;5008020;28;20517;-50
2022/04/25 01:00:08;;;;;;;;;;;8.20;99.90;;;7.38;100.00;96221.75;5003216;28;19925;-49
2022/04/25 01:02:34;;;;;;;;;;;8.10;99.90;;;7.26;100.00;96214.41;5004291;28;19935;-52
2022/04/25 01:04:59;;;;;;;;;;;8.00;99.90;;;7.21;100.00;96219.00;5006931;28;20284;-49
2022/04/25 01:07:25;;;;;;;;;;;7.90;99.90;;;7.13;100.00;96218.50;5006852;28;20087;-48
2022/04/25 01:09:51;;;;;;;;;;;7.80;99.90;;;7.07;100.00;96212.59;4990091;28;20009;-48
2022/04/25 01:12:16;;;;;;;;;;;7.80;99.90;;;6.99;100.00;96219.06;5008862;28;19975;-52
2022/04/25 01:14:42;;;;;;;;;;;7.70;99.90;;;6.97;100.00;96215.66;4989982;28;20249;-51
2022/04/25 01:17:08;;;;;;;;;;;7.60;99.90;;;6.94;100.00;96219.22;5004672;28;20441;-52
2022/04/25 01:19:34;;;;;;;;;;;7.60;99.90;;;6.90;100.00;96222.06;5009298;28;20270;-53
2022/04/25 01:22:22;;;;;;;;;;;7.50;99.90;;;6.82;100.00;96218.00;4993320;28;20297;-51
2022/04/25 01:27:33;;;;;;;;;;;7.40;99.90;;;6.75;100.00;96236.63;4996299;28;20584;-52
2022/04/25 01:29:59;;;;;;;;;;;7.40;99.90;;;6.73;100.00;96239.34;5008658;28;19925;-50
2022/04/25 01:32:25;;;;;;;;;;;7.40;99.90;;;6.75;100.00;96234.88;5006264;28;19928;-51
2022/04/25 01:34:50;;;;;;;;;;;7.40;99.90;;;6.81;100.00;96231.16;5011082;28;19917;-51
2022/04/25 01:37:18;;;;;;;;;;;7.40;99.90;;;6.87;100.00;96241.38;5007481;28;19940;-50
2022/04/25 01:39:49;;;;;;;;;;;7.50;99.90;;;6.93;100.00;96240.25;5011968;28;20703;-50
2022/04/25 01:42:15;;;;;;;;;;;7.60;99.90;;;6.94;100.00;96248.06;4991729;28;20231;-50
2022/04/25 01:44:41;;;;;;;;;;;7.60;99.90;;;6.91;100.00;96242.09;5011499;28;20033;-48
2022/04/25 01:47:07;;;;;;;;;;;7.50;99.90;;;6.86;100.00;96243.16;5012582;28;20285;-51
2022/04/25 01:49:33;;;;;;;;;;;7.50;99.90;;;6.78;100.00;96239.97;5017471;28;20189;-52
2022/04/25 01:52:16;;;;;;;;;;;7.50;99.90;;;6.82;100.00;96241.56;5010281;28;19921;-52
2022/04/25 01:54:41;;;;;;;;;;;7.50;99.90;;;6.79;100.00;96241.69;4978795;28;20296;-51
2022/04/25 01:57:07;;;;;;;;;;;7.50;99.90;;;6.79;100.00;96243.47;5009314;28;19917;-52
2022/04/25 01:59:33;;;;;;;;;;;7.40;99.90;;;6.79;100.00;96241.69;5009370;28;20387;-50
2022/04/25 02:02:01;;;;;;;;;;;7.50;99.90;;;6.74;100.00;96225.31;5006994;28;20300;-51
2022/04/25 02:04:27;;;;;;;;;;;7.50;99.90;;;6.85;100.00;96237.97;5011240;28;20063;-51
2022/04/25 02:06:53;;;;;;;;;;;7.50;99.90;;;6.88;100.00;96245.72;4997207;28;20128;-51
2022/04/25 02:09:20;;;;;;;;;;;7.60;99.90;;;6.95;100.00;96247.16;5013110;28;19925;-50
2022/04/25 02:11:46;;;;;;;;;;;7.60;99.90;;;6.99;100.00;96240.03;5008530;28;20067;-50
2022/04/25 02:14:12;;;;;;;;;;;7.60;99.90;;;7.00;100.00;96239.97;5008250;28;20395;-48
2022/04/25 02:16:38;;;;;;;;;;;7.70;99.90;;;6.99;100.00;96233.00;5012134;28;19925;-51
2022/04/25 02:19:04;;;;;;;;;;;7.70;99.90;;;7.03;100.00;96247.72;4996492;28;19921;-51
2022/04/25 02:21:29;;;;;;;;;;;7.70;99.90;;;7.04;100.00;96246.78;5012613;28;19925;-48
2022/04/25 02:23:56;;;;;;;;;;;7.70;99.90;;;7.00;100.00;96242.59;5012950;28;19957;-51
2022/04/25 02:26:22;;;;;;;;;;;7.70;99.90;;;7.05;100.00;96248.50;5013032;28;20219;-50
2022/04/25 02:28:47;;;;;;;;;;;7.80;99.90;;;7.10;100.00;96252.69;4996979;28;19921;-51
2022/04/25 02:31:13;;;;;;;;;;;7.80;99.90;;;7.11;100.00;96257.03;5010464;28;19925;-51
2022/04/25 02:33:41;;;;;;;;;;;7.80;99.90;;;6.96;100.00;96234.91;5015654;28;20508;-51
2022/04/25 02:36:07;;;;;;;;;;;7.80;99.90;;;7.07;100.00;96246.66;5011527;28;19963;-52
2022/04/25 02:38:33;;;;;;;;;;;7.80;99.90;;;7.10;100.00;96257.94;5011150;28;20007;-52
2022/04/25 02:41:05;;;;;;;;;;;7.80;99.90;;;7.10;100.00;96256.16;5005590;28;19925;-52
2022/04/25 02:43:41;;;;;;;;;;;7.80;99.90;;;7.11;100.00;96254.41;5010821;28;19921;-52
2022/04/25 02:46:09;;;;;;;;;;;7.80;99.90;;;7.07;100.00;96251.91;5008769;28;20873;-52
2022/04/25 02:48:35;;;;;;;;;;;7.70;99.90;;;7.05;100.00;96253.75;4992356;28;19921;-50
2022/04/25 02:51:02;;;;;;;;;;;7.70;99.90;;;6.99;100.00;96256.59;5007046;28;19975;-51
2022/04/25 02:53:27;;;;;;;;;;;7.70;99.90;;;6.98;100.00;96264.53;5011795;28;19928;-50
2022/04/25 02:55:53;;;;;;;;;;;7.60;99.90;;;6.95;100.00;96262.91;5011537;28;19917;-50
2022/04/25 02:58:20;;;;;;;;;;;7.60;99.90;;;6.94;100.00;96268.19;5010159;28;20016;-48
2022/04/25 03:00:46;;;;;;;;;;;7.60;99.90;;;6.93;100.00;96264.72;5010889;28;20180;-51
2022/04/25 03:03:15;;;;;;;;;;;7.60;99.90;;;6.93;100.00;96267.34;5011520;28;20328;-52
2022/04/25 03:05:45;;;;;;;;;;;7.60;99.90;;;6.93;100.00;96272.59;5014457;28;20412;-52
2022/04/25 03:08:12;;;;;;;;;;;7.60;99.90;;;6.91;100.00;96273.56;5011062;28;19967;-49
2022/04/25 03:10:38;;;;;;;;;;;7.60;99.90;;;6.87;100.00;96270.19;5005587;28;20059;-48
2022/04/25 03:13:06;;;;;;;;;;;7.50;99.90;;;6.63;100.00;96238.00;5003134;28;19947;-49
2022/04/25 03:15:38;;;;;;;;;;;7.50;99.90;;;6.64;100.00;96271.09;5014642;28;19964;-52
2022/04/25 03:18:08;;;;;;;;;;;7.40;99.90;;;6.53;100.00;96265.44;4998918;28;19955;-50
2022/04/25 03:20:34;;;;;;;;;;;7.30;99.90;;;6.42;100.00;96273.72;4989601;28;19925;-51
2022/04/25 03:23:00;;;;;;;;;;;7.10;99.90;;;6.33;100.00;96276.69;5014833;28;19949;-50
2022/04/25 03:25:25;;;;;;;;;;;7.00;99.90;;;6.23;100.00;96286.69;5013792;28;19975;-50
2022/04/25 03:27:51;;;;;;;;;;;7.00;99.90;;;6.15;100.00;96286.09;5006083;28;19943;-52
2022/04/25 03:30:17;;;;;;;;;;;6.90;99.90;;;6.10;100.00;96296.72;5009623;28;19925;-51
2022/04/25 03:32:47;;;;;;;;;;;6.80;99.90;;;6.03;100.00;96295.25;5014046;28;19921;-50
2022/04/25 03:35:17;;;;;;;;;;;6.70;99.90;;;5.77;100.00;96264.78;5016451;28;19925;-49
2022/04/25 03:37:44;;;;;;;;;;;6.70;99.90;;;5.96;100.00;96299.00;5014226;28;19933;-49
2022/04/25 03:40:10;;;;;;;;;;;6.70;99.90;;;5.98;100.00;96307.66;5011640;28;19932;-52
2022/04/25 03:42:39;;;;;;;;;;;6.70;99.90;;;5.98;100.00;96305.03;5014884;28;19917;-47
2022/04/25 03:45:06;;;;;;;;;;;6.70;99.90;;;6.00;100.00;96311.06;5013723;28;19929;-49
2022/04/25 03:47:32;;;;;;;;;;;6.70;99.90;;;6.03;100.00;96305.72;5008932;28;20422;-51
2022/04/25 03:49:58;;;;;;;;;;;6.70;99.90;;;6.05;100.00;96302.13;5003161;28;19929;-51
2022/04/25 03:52:24;;;;;;;;;;;6.70;99.90;;;6.07;100.00;96302.09;5008860;28;19998;-50
2022/04/25 03:57:34;;;;;;;;;;;6.80;99.90;;;6.11;100.00;96311.53;5011046;28;19987;-51
2022/04/25 03:59:59;;;;;;;;;;;6.80;99.90;;;6.14;100.00;96315.78;5013249;28;19917;-49
2022/04/25 04:02:25;;;;;;;;;;;6.80;99.90;;;6.16;100.00;96308.75;5011217;28;20625;-47
2022/04/25 04:04:51;;;;;;;;;;;6.90;99.90;;;6.19;100.00;96319.09;5006130;28;19921;-51
2022/04/25 04:07:16;;;;;;;;;;;6.90;99.90;;;6.20;100.00;96316.41;5010668;28;20510;-52
2022/04/25 04:09:44;;;;;;;;;;;6.90;99.90;;;6.26;100.00;96324.06;5008304;28;19924;-52
2022/04/25 04:12:10;;;;;;;;;;;6.90;99.90;;;6.30;100.00;96322.19;5003680;28;19929;-52
2022/04/25 04:14:36;;;;;;;;;;;7.00;99.90;;;6.35;100.00;96333.31;5006350;28;19925;-49
2022/04/25 04:17:07;;;;;;;;;;;7.00;99.90;;;6.36;100.00;96321.09;5007504;28;19979;-50
2022/04/25 04:19:33;;;;;;;;;;;7.10;99.90;;;6.43;100.00;96333.06;5002441;28;19984;-51
2022/04/25 04:22:02;;;;;;;;;;;7.10;99.90;;;6.48;100.00;96342.44;5004742;28;19925;-50
2022/04/25 04:24:28;;;;;;;;;;;7.20;99.90;;;6.53;100.00;96344.03;4997179;28;20336;-51
2022/04/25 04:26:56;;;;;;;;;;;7.20;99.90;;;6.57;100.00;96343.88;5011423;28;19924;-50
2022/04/25 04:29:22;;;;;;;;;;;7.20;99.90;;;6.61;100.00;96353.31;5008148;28;19925;-47
2022/04/25 04:31:48;;;;;;;;;;;7.30;99.90;;;6.65;100.00;96359.28;5008914;28;20028;-52
2022/04/25 04:34:14;;;;;;;;;;;7.30;99.90;;;6.68;100.00;96357.41;5008835;28;19925;-51
2022/04/25 04:36:40;;;;;;;;;;;7.40;99.90;;;6.77;100.00;96361.44;5011514;28;20369;-51
2022/04/25 04:39:05;;;;;;;;;;;7.40;99.90;;;6.80;100.00;96363.94;5010676;28;20266;-52
2022/04/25 04:41:31;;;;;;;;;;;7.50;99.90;;;6.86;100.00;96365.47;5001776;28;20023;-50
2022/04/25 04:43:57;;;;;;;;;;;7.50;99.90;;;6.95;100.00;96362.50;5005754;28;20329;-48
2022/04/25 04:46:24;;;;;;;;;;;7.60;99.90;;;7.02;100.00;96363.97;5004225;28;19921;-49
2022/04/25 04:48:50;;;;;;;;;;;7.60;99.90;;;7.11;100.00;96362.75;5013023;28;20011;-49
2022/04/25 04:51:16;;;;;;;;;;;7.70;99.90;;;7.19;100.00;96362.44;4992101;28;19921;-52
2022/04/25 04:53:41;;;;;;;;;;;7.80;99.90;;;7.26;100.00;96361.28;5012042;28;19971;-49
2022/04/25 04:56:07;;;;;;;;;;;7.90;99.90;;;7.34;100.00;96369.69;5011387;28;19929;-48
2022/04/25 04:58:32;;;;;;;;;;;8.00;99.90;;;7.42;100.00;96378.09;5011432;28;20677;-48
2022/04/25 05:00:59;;;;;;;;;;;8.10;99.90;;;7.46;100.00;96389.31;5007184;28;20368;-50
2022/04/25 05:03:25;;;;;;;;;;;8.10;99.90;;;7.49;100.00;96389.19;5008614;28;19933;-51
2022/04/25 05:05:54;;;;;;;;;;;8.20;99.90;;;7.53;100.00;96388.16;5012161;28;20300;-51
2022/04/25 05:08:20;;;;;;;;;;;8.20;99.90;;;7.53;100.00;96382.91;5009752;28;20007;-48
2022/04/25 05:10:46;;;;;;;;;;;8.20;99.90;;;7.58;100.00;96380.09;5012151;28;19928;-50
2022/04/25 05:13:12;;;;;;;;;;;8.30;99.90;;;7.65;100.00;96379.78;5009156;28;20053;-50
2022/04/25 05:15:38;;;;;;;;;;;8.30;99.90;;;7.77;100.00;96391.53;5014427;28;20019;-48
2022/04/25 05:18:03;;;;;;;;;;;8.40;99.90;;;7.84;100.00;96389.47;5013714;28;19931;-49
2022/04/25 05:20:29;;;;;;;;;;;8.40;99.90;;;7.86;100.00;96386.81;5015639;28;20324;-50
2022/04/25 05:22:56;;;;;;;;;;;8.50;99.90;;;7.90;100.00;96388.41;5012120;28;20278;-51
2022/04/25 05:25:23;;;;;;;;;;;8.50;99.90;;;7.91;100.00;96401.44;5011651;28;19935;-50
2022/04/25 05:27:51;;;;;;;;;;;8.50;99.90;;;7.95;100.00;96400.41;5015649;28;19925;-48
2022/04/25 05:30:18;;;;;;;;;;;8.50;99.90;;;8.01;100.00;96401.91;5015352;28;20377;-49
2022/04/25 05:32:47;;;;;;;;;;;8.60;99.90;;;8.09;100.00;96407.69;5030456;22;19917;-45
2022/04/25 05:35:14;;;;;;;;;;;8.70;99.90;;;8.26;100.00;96411.38;5016468;28;19991;-50
2022/04/25 05:37:39;;;;;;;;;;;8.80;99.90;;;8.42;100.00;96412.44;5019148;28;19921;-48
2022/04/25 05:40:06;;;;;;;;;;;9.00;99.90;;;8.62;100.00;96422.06;5011841;28;19974;-50
2022/04/25 05:42:32;;;;;;;;;;;9.20;99.90;;;8.78;100.00;96414.34;5017362;28;19917;-50
2022/04/25 05:44:59;;;;;;;;;;;9.30;99.90;;;8.82;100.00;96415.06;4997418;28;20385;-50
2022/04/25 05:47:25;;;;;;;;;;;9.50;99.90;;;8.97;100.00;96415.19;5017269;28;20351;-51
2022/04/25 05:52:36;;;;;;;;;;;9.70;99.90;;;9.44;100.00;96423.53;5010385;28;19975;-51
2022/04/25 05:55:02;;;;;;;;;;;9.90;99.90;;;9.52;100.00;96421.41;5010720;28;20016;-49
2022/04/25 05:57:28;;;;;;;;;;;10.10;99.90;;;9.64;100.00;96426.06;4995801;28;19921;-51
2022/04/25 05:59:53;;;;;;;;;;;10.20;99.90;;;9.83;100.00;96428.63;5014406;28;20452;-47
2022/04/25 06:02:19;;;;;;;;;;;10.30;99.90;;;9.91;100.00;96429.13;5006648;28;19932;-49
2022/04/25 06:04:45;;;;;;;;;;;10.40;99.90;;;9.97;100.00;96430.59;5015923;28;19927;-51
2022/04/25 06:07:11;;;;;;;;;;;10.50;99.90;;;10.04;100.00;96426.72;5019555;28;19925;-49
2022/04/25 06:09:37;;;;;;;;;;;10.60;99.90;;;10.24;100.00;96430.13;5021037;28;19960;-49
2022/04/25 06:12:03;;;;;;;;;;;10.70;99.90;;;10.35;100.00;96422.56;5015234;28;20019;-48
2022/04/25 06:14:31;;;;;;;;;;;10.80;99.90;;;10.24;100.00;96409.06;4999628;28;20185;-48
2022/04/25 06:17:00;;;;;;;;;;;10.80;99.90;;;10.41;100.00;96427.53;5021616;28;19925;-48
2022/04/25 06:19:26;;;;;;;;;;;10.90;99.90;;;10.53;100.00;96433.91;5019358;28;19929;-51
2022/04/25 06:21:51;;;;;;;;;;;11.00;99.90;;;10.66;100.00;96423.63;5018717;28;20290;-49
2022/04/25 06:24:18;;;;;;;;;;;11.20;99.90;;;10.73;100.00;96421.47;5015542;28;20004;-48
2022/04/25 06:26:43;;;;;;;;;;;11.40;99.90;;;10.89;100.00;96431.16;5021147;28;19995;-49
2022/04/25 06:29:09;;;;;;;;;;;11.40;99.90;;;10.84;100.00;96435.81;5019068;28;19921;-47
2022/04/25 06:31:35;;;;;;;;;;;11.50;99.90;;;10.82;100.00;96442.97;5019197;28;19999;-50
2022/04/25 06:34:00;;;;;;;;;;;11.40;99.90;;;10.91;100.00;96443.38;5019932;28;20428;-48
2022/04/25 06:36:26;;;;;;;;;;;11.40;99.90;;;10.96;100.00;96438.72;5014272;28;19960;-51
2022/04/25 06:38:52;;;;;;;;;;;11.50;99.90;;;10.95;100.00;96444.94;5019428;28;20024;-50
2022/04/25 06:41:18;;;;;;;;;;;11.50;99.90;;;11.01;100.00;96449.88;5017118;28;19921;-49
2022/04/25 06:43:43;;;;;;;;;;;11.50;99.90;;;11.18;100.00;96444.53;5016631;28;19925;-47
2022/04/25 06:46:09;;;;;;;;;;;11.70;99.90;;;11.41;100.00;96448.56;5016055;28;19968;-49
2022/04/25 06:48:35;;;;;;;;;;;11.90;99.90;;;11.72;100.00;96448.59;5015774;28;20032;-48
2022/04/25 06:51:01;;;;;;;;;;;12.20;99.90;;;11.95;100.00;96445.56;5014498;28;19925;-49
2022/04/25 06:53:27;;;;;;;;;;;12.40;99.90;;;12.06;100.00;96439.66;5014154;28;19925;-47
2022/04/25 06:55:53;;;;;;;;;;;12.60;99.90;;;12.15;100.00;96443.53;5014236;28;19943;-48
2022/04/25 06:58:18;;;;;;;;;;;12.70;99.90;;;12.17;100.00;96442.50;4998766;28;20377;-47
2022/04/25 07:00:45;;;;;;;;;;;12.70;99.90;;;12.22;100.00;96444.88;5023171;28;19923;-50
2022/04/25 07:03:10;;;;;;;;;;;12.70;99.90;;;12.18;100.00;96451.28;5015405;28;19920;-52
2022/04/25 07:05:36;;;;;;;;;;;12.70;99.90;;;12.01;100.00;96431.13;5018166;28;20384;-50
2022/04/25 07:08:03;;;;;;;;;;;12.60;99.90;;;11.95;100.00;96445.56;5021476;28;19968;-48
2022/04/25 07:10:29;;;;;;;;;;;12.50;99.90;;;11.94;100.00;96448.28;5019815;28;20004;-48
2022/04/25 07:12:56;;;;;;;;;;;12.40;99.90;;;11.94;100.00;96457.06;5001488;28;20315;-49
2022/04/25 07:15:24;;;;;;;;;;;12.40;99.90;;;11.89;100.00;96453.78;5000438;28;19932;-51
2022/04/25 07:17:56;;;;;;;;;;;12.40;99.90;;;11.94;100.00;96454.41;5020167;28;19928;-49
2022/04/25 07:20:22;;;;;;;;;;;12.40;99.90;;;11.96;100.00;96463.09;5021090;28;19956;-51
2022/04/25 07:31:01;;;;;;;;;;;13.00;99.90;;;12.89;100.00;96465.59;5018589;28;20677;-47
2022/04/25 07:33:26;;;;;;;;;;;13.30;99.90;;;13.02;90.62;96466.53;5014841;28;19921;-50
2022/04/25 07:35:53;;;;;;;;;;;13.60;99.90;;;13.26;88.43;96472.13;5002076;28;19928;-48
2022/04/25 07:38:19;;;;;;;;;;;13.90;99.90;;;13.22;82.07;96465.28;5002071;28;19929;-48
2022/04/25 07:40:45;;;;;;;;;;;13.90;99.90;;;13.23;85.06;96463.50;5016566;28;19917;-51
2022/04/25 07:43:11;;;;;;;;;;;13.80;99.90;;;13.34;86.50;96466.38;5017441;28;20008;-50
2022/04/25 07:45:36;;;;;;;;;;;13.80;99.90;;;13.35;85.42;96466.28;5016778;28;19971;-48
2022/04/25 07:48:02;;;;;;;;;;;13.90;99.90;;;13.41;86.58;96467.69;5014848;28;19935;-48
2022/04/25 07:50:28;;;;;;;;;;;13.90;99.90;;;13.53;87.63;96469.56;5018632;28;19983;-47
2022/04/25 07:52:53;;;;;;;;;;;14.10;99.90;;;13.73;86.58;96470.09;5016578;28;19917;-48
2022/04/25 07:55:19;;;;;;;;;;;14.20;99.90;;;13.54;82.68;96438.59;4998937;28;20311;-50
2022/04/25 07:57:45;;;;;;;;;;;14.20;99.90;;;13.70;82.43;96471.09;5016365;28;20353;-51
2022/04/25 08:00:11;;;;;;;;;;;14.20;99.90;;;13.71;79.37;96483.41;5016214;28;20440;-48
2022/04/25 08:02:37;;;;;;;;;;;14.30;99.90;;;13.77;81.84;96478.69;5016013;28;19948;-48
2022/04/25 08:05:03;;;;;;;;;;;14.40;99.90;;;13.92;80.31;96475.03;5017045;28;20188;-47
2022/04/25 08:07:30;;;;;;;;;;;14.50;99.90;;;14.06;80.28;96477.63;5017335;28;20250;-48
2022/04/25 08:09:55;;;;;;;;;;;14.60;99.90;;;14.14;79.31;96474.47;5019184;28;19967;-48
2022/04/25 08:18:01;;;;;;;;;;;14.80;99.90;;;14.24;71.15;96480.84;5017977;28;20003;-48
2022/04/25 08:20:28;;;;;;;;;;;14.80;99.90;;;14.15;75.36;96475.31;5013290;28;19927;-46
2022/04/25 08:22:56;;;;;;;;;;;14.80;99.90;;;14.07;76.14;96479.34;5014688;28;19925;-48
2022/04/25 08:25:22;;;;;;;;;;;14.70;99.90;;;14.09;77.80;96487.19;5013316;28;19921;-49
2022/04/25 08:27:47;;;;;;;;;;;14.70;99.90;;;14.10;79.28;96495.03;5018121;28;20137;-46
2022/04/25 08:30:13;;;;;;;;;;;14.60;99.90;;;14.04;78.31;96497.25;5018202;28;19928;-47
2022/04/25 08:32:39;;;;;;;;;;;14.60;99.90;;;14.01;78.00;96497.44;5017737;28;19971;-48
2022/04/25 08:35:05;;;;;;;;;;;14.50;99.90;;;13.88;76.19;96495.56;5017975;28;20396;-48
2022/04/25 08:37:30;;;;;;;;;;;14.40;99.90;;;13.68;75.46;96498.66;5019262;28;19921;-48
2022/04/25 08:39:56;;;;;;;;;;;14.20;99.90;;;13.50;75.56;96504.16;5017499;28;19961;-47
2022/04/25 08:42:22;;;;;;;;;;;14.10;99.90;;;13.34;76.50;96506.09;5018521;28;19940;-47
2022/04/25 08:44:55;;;;;;;;;;;13.90;99.90;;;13.24;80.05;96520.78;5017717;28;19940;-51
2022/04/25 08:47:22;;;;;;;;;;;13.80;99.90;;;13.21;80.70;96513.91;5015662;28;19925;-49
2022/04/25 08:49:47;;;;;;;;;;;13.80;99.90;;;13.12;79.24;96507.38;4999902;28;19925;-47
2022/04/25 08:52:13;;;;;;;;;;;13.70;99.90;;;13.15;80.29;96506.31;5014696;28;19924;-48
2022/04/25 08:54:39;;;;;;;;;;;13.80;99.90;;;13.15;81.54;96491.31;4995613;28;19976;-50
2022/04/25 08:57:05;;;;;;;;;;;13.90;99.90;;;13.36;82.28;96502.38;5015973;28;19921;-51
2022/04/25 08:59:31;;;;;;;;;;;14.10;99.90;;;13.66;81.88;96521.75;5012852;28;20636;-50
2022/04/25 09:01:57;;;;;;;;;;;14.20;99.90;;;13.82;78.39;96527.78;4997078;28;19925;-49
2022/04/25 09:04:24;;;;;;;;;;;14.40;99.90;;;13.98;78.92;96518.81;5018198;28;19932;-47
2022/04/25 09:06:54;;;;;;;;;;;14.60;99.90;;;14.03;76.97;96519.38;5015593;28;20380;-49
2022/04/25 09:09:20;;;;;;;;;;;14.70;99.90;;;14.20;76.94;96532.41;5015640;28;19956;-48
2022/04/25 09:14:31;;;;;;;;;;;14.80;99.90;;;14.26;77.25;96539.94;5016204;28;20574;-50
2022/04/25 09:16:58;;;;;;;;;;;14.80;99.90;;;13.98;71.78;96545.34;5000597;28;20207;-52
2022/04/25 09:19:25;;;;;;;;;;;14.60;99.90;;;14.02;75.31;96549.50;4994742;28;20414;-51
2022/04/25 09:21:51;;;;;;;;;;;14.40;99.90;;;13.86;73.72;96547.00;5018179;28;20381;-47
2022/04/25 09:24:33;;;;;;;;;;;14.40;99.90;;;13.89;76.17;96544.13;5015529;28;19930;-52
2022/04/25 09:27:11;;;;;;;;;;;14.30;99.90;;;13.78;75.67;96542.16;5016953;28;19964;-47
2022/04/25 09:29:38;;;;;;;;;;;14.30;99.90;;;13.83;78.57;96550.66;5019107;28;19956;-51
2022/04/25 09:32:04;;;;;;;;;;;14.30;99.90;;;13.98;77.57;96551.50;5017595;28;20387;-46
2022/04/25 09:37:16;;;;;;;;;;;14.50;99.90;;;14.35;77.66;96553.56;5017158;28;19928;-48
2022/04/25 09:39:42;;;;;;;;;;;14.70;99.90;;;14.49;72.91;96542.91;5017439;28;19936;-47
2022/04/25 09:42:09;;;;;;;;;;;15.00;99.90;;;14.61;75.57;96544.75;5015476;28;19922;-47
2022/04/25 09:44:53;;;;;;;;;;;15.10;99.90;;;14.67;73.40;96546.16;5013075;28;19932;-48
2022/04/25 09:47:37;;;;;;;;;;;15.20;99.90;;;14.81;73.81;96550.53;5014691;28;20062;-48
2022/04/25 09:50:08;;;;;;;;;;;15.30;99.90;;;15.06;70.68;96550.56;5018506;28;19978;-48
2022/04/25 09:52:54;;;;;;;;;;;15.50;99.90;;;15.31;69.50;96551.53;5015033;28;20027;-48
2022/04/25 09:55:22;;;;;;;;;;;15.80;99.90;;;15.46;66.08;96550.44;5016402;28;19931;-48
2022/04/25 09:57:49;;;;;;;;;;;16.10;99.90;;;15.55;68.92;96548.13;5016094;28;20384;-49
2022/04/25 10:00:30;;;;;;;;;;;16.30;99.90;;;15.70;66.66;96551.50;5015763;28;19929;-48
2022/04/25 10:02:57;;;;;;;;;;;16.40;99.90;;;15.71;64.22;96548.72;5019070;28;19952;-49
2022/04/25 10:05:22;;;;;;;;;;;16.40;99.90;;;15.57;66.62;96548.84;5018798;28;19928;-47
2022/04/25 10:07:49;;;;;;;;;;;16.20;99.90;;;15.39;66.46;96532.41;5023565;28;19929;-47
2022/04/25 10:10:15;;;;;;;;;;;16.00;99.90;;;15.41;67.68;96541.09;5004788;28;19948;-48
2022/04/25 10:12:41;;;;;;;;;;;15.90;99.90;;;15.32;66.36;96541.75;5018372;28;19917;-46
2022/04/25 10:15:07;;;;;;;;;;;15.80;99.90;;;15.10;69.44;96516.69;5019334;28;19928;-47
2022/04/25 10:17:40;;;;;;;;;;;15.80;99.90;;;15.08;69.21;96524.75;5019132;28;19932;-47
2022/04/25 10:20:07;;;;;;;;;;;15.70;99.90;;;15.21;68.57;96546.00;5020689;28;19947;-48
2022/04/25 10:22:34;;;;;;;;;;;15.70;99.90;;;15.26;66.48;96549.19;5017216;28;19928;-50
2022/04/25 10:24:59;;;;;;;;;;;15.80;99.90;;;15.37;65.74;96545.78;5024877;28;19936;-46
2022/04/25 10:27:28;;;;;;;;;;;15.90;99.90;;;15.53;66.03;96544.72;5016680;28;20385;-49
2022/04/25 10:29:55;;;;;;;;;;;16.10;99.90;;;15.66;67.93;96541.06;5019338;28;19972;-50
2022/04/25 10:32:22;;;;;;;;;;;16.20;99.90;;;15.75;65.88;96550.22;4998838;28;19932;-51
2022/04/25 10:34:56;;;;;;;;;;;16.30;99.90;;;15.84;62.83;96554.03;5019920;28;19929;-47
2022/04/25 10:37:39;;;;;;;;;;;16.40;99.90;;;15.81;60.91;96548.97;5017402;28;20006;-48
2022/04/25 10:40:12;;;;;;;;;;;16.50;99.90;;;16.05;61.16;96551.66;5017993;28;19932;-50
2022/04/25 10:45:55;;;;;;;;;;;16.70;99.90;;;16.00;59.87;96559.94;5018976;28;19947;-48
2022/04/25 10:48:21;;;;;;;;;;;16.70;99.90;;;16.13;60.48;96549.28;5018623;28;20339;-46
2022/04/25 10:51:12;;;;;;;;;;;16.80;99.90;;;16.15;59.30;96557.13;5020190;28;20423;-48
2022/04/25 10:54:00;;;;;;;;;;;16.90;99.90;;;16.41;59.97;96544.59;5015067;28;19917;-49
2022/04/25 10:56:28;;;;;;;;;;;16.90;99.90;;;16.06;57.47;96525.91;5019705;28;19925;-49
2022/04/25 10:59:25;;;;;;;;;;;16.90;99.90;;;16.38;58.03;96548.34;5023326;28;20011;-46
2022/04/25 11:01:51;;;;;;;;;;;16.90;99.90;;;16.21;57.77;96554.88;5017519;28;19921;-49
2022/04/25 11:04:18;;;;;;;;;;;16.90;99.90;;;16.10;58.75;96548.66;5018407;28;19928;-51
2022/04/25 11:06:44;;;;;;;;;;;16.90;99.90;;;16.15;57.46;96563.34;5016936;28;19925;-50
2022/04/25 11:09:10;;;;;;;;;;;16.90;99.90;;;16.26;58.23;96557.22;5017318;28;20356;-48
2022/04/25 11:11:53;;;;;;;;;;;16.80;99.90;;;16.38;61.43;96558.13;5019299;28;20066;-47
2022/04/25 11:14:19;;;;;;;;;;;17.00;99.90;;;16.51;57.20;96564.25;5019044;28;20007;-47
2022/04/25 11:17:11;;;;;;;;;;;17.20;99.90;;;16.51;57.12;96568.69;5018411;28;20048;-49
2022/04/25 11:19:51;;;;;;;;;;;17.20;99.90;;;16.31;56.26;96579.03;5020763;28;19929;-48
2022/04/25 11:22:35;;;;;;;;;;;17.10;99.90;;;16.61;57.15;96570.56;4999797;28;20376;-48
2022/04/25 11:25:22;;;;;;;;;;;17.20;99.90;;;16.75;58.06;96566.03;5015254;28;19923;-50
2022/04/25 11:28:08;;;;;;;;;;;17.30;99.90;;;16.84;59.01;96573.38;5018577;28;19925;-50
2022/04/25 11:30:34;;;;;;;;;;;17.30;99.90;;;16.83;60.00;96570.78;5016832;28;19928;-49
2022/04/25 11:35:43;;;;;;;;;;;17.10;99.90;;;16.30;60.84;96584.47;5027115;28;19933;-48
2022/04/25 11:38:08;;;;;;;;;;;16.70;99.90;;;15.99;61.54;96584.84;5027245;28;20070;-50
2022/04/25 11:40:34;;;;;;;;;;;16.40;99.90;;;15.75;65.54;96576.81;5022807;28;20012;-48
2022/04/25 11:43:03;;;;;;;;;;;16.20;99.90;;;15.51;66.08;96576.72;5026619;28;19920;-50
2022/04/25 11:45:29;;;;;;;;;;;16.00;99.90;;;15.15;66.99;96590.75;4989767;28;19929;-48
2022/04/25 11:47:55;;;;;;;;;;;15.60;99.90;;;14.83;71.46;96589.28;5007744;28;19929;-53
2022/04/25 11:50:21;;;;;;;;;;;15.30;99.90;;;14.37;75.86;96581.69;5009293;28;19961;-51
2022/04/25 11:52:48;;;;;;;;;;;15.00;99.90;;;14.13;78.60;96594.72;5005334;28;19940;-52
2022/04/25 11:55:16;;;;;;;;;;;14.70;99.90;;;13.58;82.41;96591.09;5006879;28;19944;-51